Saint Croix Falls, WI (54024)

6:17 AM CST on January 25, 2015 (GMT -0600)
Hilltop Acres | Change Station
CLOSE
Current Station
Personal Weather Station
Location: Osceola, WI
Elevation: 900 ft
Nearby Weather Stations

Elev 900 ft 45.34 °N, 92.67 °W | Updated 5 minutes ago

Overcast
Overcast
19.8 °F
Feels Like 7 °F
N
12.0
Wind Variable Wind from ENE
Gusts 17.0 mph

Today
High -- | Low -- °F
--% Chance of Precip.
Yesterday
High -- | Low -- °F
Precip. -- in
7:39 AM 5:07 PM
Waxing Crescent, 31% visible
Pressure 29.94 in
Visibility 10.0 miles
Clouds Mostly Cloudy 3600 ft
Windchill 7 °F
Dew Point 14 °F
Humidity 77%
Rainfall 0.00 in
Snow Depth Not available.
UV 0 out of 12
Pollen .10 out of 12
Air Quality Not available.
Flu Activity Not available.
METAR KOEO 251155Z AUTO 02014G17KT 10SM BKN036 M06/M11 A2994 RMK AO2 T10631107 10002 21063

More Conditions Fewer Conditions

Pressure 29.94 in
Visibility 10.0 miles
Clouds Mostly Cloudy 3600 ft
Windchill 7 °F
Dew Point 14 °F
Humidity 77%
Rainfall 0.00 in
Snow Depth Not available.
UV 0 out of 12
Pollen .10 out of 12
Air Quality Not available.
Flu Activity Not available.
METAR KOEO 251155Z AUTO 02014G17KT 10SM BKN036 M06/M11 A2994 RMK AO2 T10631107 10002 21063

More Conditions Fewer Conditions

10-Day Weather Forecast

Almanac

Astronomy

Jan. 25, 2015 Rise Set
Actual Time
Civil Twilight
Nautical Twilight
Astronomical Twilight
Moon
Length of Visible Light
Length of Day
Tomorrow will be .
, % of the Moon is Illuminated

Today's Extremes

State Highs State Lows

Community

WunderPhotos

Upload Photos

1,789,873 photos uploaded!

WunderBlogs® & News

Nearby

Air Quality

  Air Quality AQ Index Pollutant
Not available.

Snow Depth

Station Depth Elevation

Earthquake Activity

City Distance Mag. Time & Date
Minimum magnitude displayed is 2.5.

Coastal Water Temperatures

Place Temperature

Nearby Weather Stations